Time;durP1;ratioP1;P1;durP2;ratioP2;P2;SDS_P1;SDS_P2;PMS_P1;PMS_P2;Temp;Humidity;BMP_temperature;BMP_pressure;BME280_temperature;BME280_humidity;BME280_pressure;Samples;Min_cycle;Max_cycle;Signal;HPM_P1;HPM_P2
2022/04/12 00:00:34;;;;;;;13.85;7.88;;;12.50;97.20;;;;;;5052189;28;20458;-61
2022/04/12 00:03:01;;;;;;;15.30;8.35;;;12.40;97.20;;;;;;5034996;28;20051;-59
2022/04/12 00:05:28;;;;;;;17.00;8.20;;;12.20;97.40;;;;;;5052271;28;20500;-57
2022/04/12 00:07:57;;;;;;;14.35;7.88;;;12.10;97.70;;;;;;5053314;28;20463;-59
2022/04/12 00:10:25;;;;;;;19.15;8.90;;;12.00;98.00;;;;;;5050565;28;20080;-57
2022/04/12 00:12:52;;;;;;;18.33;9.50;;;11.90;98.30;;;;;;5051457;28;20052;-59
2022/04/12 00:15:18;;;;;;;16.77;8.57;;;11.90;98.30;;;;;;5051347;28;20041;-59
2022/04/12 00:20:31;;;;;;;15.60;8.80;;;11.90;98.30;;;;;;5052557;28;20080;-59
2022/04/12 00:22:58;;;;;;;13.10;7.72;;;12.00;98.30;;;;;;5051628;28;20122;-58
2022/04/12 00:25:25;;;;;;;14.32;8.77;;;12.00;98.30;;;;;;5051436;28;20053;-58
2022/04/12 00:27:54;;;;;;;14.77;8.05;;;12.00;98.30;;;;;;5052520;28;20068;-60
2022/04/12 00:30:21;;;;;;;18.13;8.98;;;12.00;98.30;;;;;;5052169;28;20048;-60
2022/04/12 00:32:50;;;;;;;15.70;8.30;;;12.00;98.70;;;;;;5050819;28;20079;-58
2022/04/12 00:35:18;;;;;;;16.85;8.35;;;12.00;98.40;;;;;;5051101;28;20097;-59
2022/04/12 00:37:45;;;;;;;15.30;8.20;;;12.10;98.50;;;;;;5034466;28;20049;-58
2022/04/12 00:40:13;;;;;;;15.98;8.73;;;12.10;98.50;;;;;;5050921;28;20077;-58
2022/04/12 00:42:39;;;;;;;15.07;8.18;;;12.10;98.50;;;;;;5051451;28;20496;-58
2022/04/12 00:45:07;;;;;;;15.68;8.68;;;12.10;98.50;;;;;;5052283;28;20137;-59
2022/04/12 00:47:33;;;;;;;22.52;9.88;;;12.10;98.40;;;;;;5051930;28;20080;-58
2022/04/12 00:50:00;;;;;;;13.40;8.23;;;12.10;98.50;;;;;;5052372;28;20048;-58
2022/04/12 00:52:27;;;;;;;16.40;8.25;;;12.10;98.50;;;;;;5050364;28;20076;-59
2022/04/12 00:54:54;;;;;;;19.20;9.88;;;12.10;98.60;;;;;;5051056;28;20102;-58
2022/04/12 00:57:20;;;;;;;14.57;8.65;;;12.10;98.50;;;;;;5050285;28;20127;-58
2022/04/12 00:59:47;;;;;;;16.52;9.27;;;12.10;98.50;;;;;;5050404;28;20060;-58
2022/04/12 01:02:14;;;;;;;14.40;8.23;;;12.10;98.60;;;;;;5050156;28;20041;-59
2022/04/12 01:04:41;;;;;;;17.58;8.13;;;12.10;98.60;;;;;;5050239;28;20057;-59
2022/04/12 01:07:08;;;;;;;14.82;8.15;;;12.10;98.50;;;;;;5051588;28;20136;-58
2022/04/12 01:09:35;;;;;;;13.80;8.90;;;12.10;98.60;;;;;;5050089;28;20090;-58
2022/04/12 01:12:09;;;;;;;17.25;8.23;;;12.10;98.50;;;;;;5051214;28;20135;-57
2022/04/12 01:14:35;;;;;;;;;;;12.20;98.60;;;;;;5045101;28;20132;-58
2022/04/12 01:17:04;;;;;;;15.05;8.30;;;12.10;99.70;;;;;;5051211;28;20261;-59
2022/04/12 01:19:31;;;;;;;12.77;7.47;;;12.10;98.60;;;;;;5033742;28;20534;-59
2022/04/12 01:22:03;;;;;;;14.63;8.13;;;12.10;98.80;;;;;;5051038;28;20833;-57
2022/04/12 01:24:30;;;;;;;13.20;8.10;;;12.10;98.80;;;;;;5050964;28;20405;-58
2022/04/12 01:26:57;;;;;;;14.50;8.38;;;12.10;98.60;;;;;;5050865;28;20482;-58
2022/04/12 01:29:24;;;;;;;13.00;7.40;;;12.10;98.60;;;;;;5051437;28;20068;-56
2022/04/12 01:31:51;;;;;;;13.63;7.28;;;12.10;98.60;;;;;;5050689;28;20088;-58
2022/04/12 01:34:18;;;;;;;13.95;7.72;;;12.10;98.60;;;;;;5051188;28;20140;-60
2022/04/12 01:36:45;;;;;;;13.80;7.85;;;12.10;98.60;;;;;;5050130;28;20045;-59
2022/04/12 01:39:12;;;;;;;15.43;8.63;;;12.20;98.60;;;;;;5050708;28;20121;-57
2022/04/12 01:41:38;;;;;;;14.82;8.18;;;12.10;98.60;;;;;;5049083;28;20071;-58
2022/04/12 01:44:05;;;;;;;14.30;8.02;;;12.10;98.70;;;;;;5050774;28;20099;-57
2022/04/12 01:46:32;;;;;;;14.88;8.30;;;12.10;98.70;;;;;;5032899;28;20148;-58
2022/04/12 01:48:59;;;;;;;15.27;8.77;;;12.00;98.70;;;;;;5050920;28;20507;-58
2022/04/12 01:51:26;;;;;;;19.85;8.88;;;12.00;98.70;;;;;;5049345;28;20049;-59
2022/04/12 01:53:53;;;;;;;14.18;7.97;;;12.00;98.80;;;;;;5050570;28;20084;-59
2022/04/12 01:56:20;;;;;;;15.68;8.18;;;12.00;98.90;;;;;;5050602;28;20071;-58
2022/04/12 01:58:46;;;;;;;12.80;7.70;;;11.90;98.90;;;;;;5049830;28;20087;-59
2022/04/12 02:01:13;;;;;;;17.52;8.45;;;11.90;99.00;;;;;;5050729;28;20049;-56
2022/04/12 02:03:41;;;;;;;15.18;8.30;;;11.90;99.30;;;;;;5049860;28;20488;-58
2022/04/12 02:06:07;;;;;;;13.70;8.38;;;11.90;99.10;;;;;;5050972;28;20076;-59
2022/04/12 02:08:35;;;;;;;16.63;8.98;;;11.90;99.10;;;;;;5048695;28;20132;-59
2022/04/12 02:11:02;;;;;;;11.77;7.55;;;11.90;99.00;;;;;;5050553;28;20076;-57
2022/04/12 02:13:29;;;;;;;15.18;8.90;;;11.90;99.10;;;;;;5048635;28;20076;-57
2022/04/12 02:15:55;;;;;;;13.35;8.70;;;11.80;99.30;;;;;;5050320;28;20412;-58
2022/04/12 02:18:22;;;;;;;15.43;9.07;;;11.80;99.20;;;;;;5050206;28;20049;-57
2022/04/12 02:20:49;;;;;;;13.20;7.85;;;11.80;99.20;;;;;;5049794;28;20076;-58
2022/04/12 02:23:16;;;;;;;13.10;8.13;;;11.80;99.20;;;;;;5050215;28;20072;-58
2022/04/12 02:25:42;;;;;;;14.70;8.55;;;11.80;99.20;;;;;;5050368;28;20075;-56
2022/04/12 02:28:09;;;;;;;14.80;8.05;;;11.90;99.20;;;;;;5049754;28;20076;-57
2022/04/12 02:30:38;;;;;;;14.55;8.60;;;11.90;99.40;;;;;;5049502;28;20091;-57
2022/04/12 02:33:05;;;;;;;17.00;9.52;;;11.90;99.20;;;;;;5049340;28;20532;-56
2022/04/12 02:35:31;;;;;;;13.00;8.07;;;11.90;99.20;;;;;;5048713;28;20053;-58
2022/04/12 02:37:58;;;;;;;13.98;8.07;;;11.90;99.20;;;;;;5049344;28;20440;-57
2022/04/12 02:40:25;;;;;;;13.02;7.30;;;11.80;99.40;;;;;;5032200;28;20072;-58
2022/04/12 02:42:52;;;;;;;16.55;8.55;;;11.80;99.40;;;;;;5049534;28;20503;-58
2022/04/12 02:45:19;;;;;;;15.40;8.63;;;11.80;99.60;;;;;;5049688;28;20538;-58
2022/04/12 02:47:45;;;;;;;11.70;7.07;;;11.80;99.70;;;;;;5049682;28;20052;-59
2022/04/12 02:50:12;;;;;;;15.20;8.32;;;11.90;99.60;;;;;;5049680;28;20088;-58
2022/04/12 02:52:39;;;;;;;13.60;8.15;;;11.90;99.60;;;;;;5048347;28;20479;-58
2022/04/12 02:55:06;;;;;;;14.00;7.90;;;12.00;99.60;;;;;;5049585;28;20088;-57
2022/04/12 02:57:33;;;;;;;15.35;7.78;;;12.00;99.60;;;;;;5049048;28;20566;-59
2022/04/12 03:00:00;;;;;;;12.68;8.35;;;12.00;99.50;;;;;;5049176;28;20064;-56
2022/04/12 03:02:27;;;;;;;13.80;7.72;;;12.00;99.60;;;;;;5049559;28;20569;-58
2022/04/12 03:04:53;;;;;;;17.63;8.13;;;12.00;99.60;;;;;;5049781;28;20067;-58
2022/04/12 03:07:20;;;;;;;16.48;7.95;;;12.00;99.60;;;;;;5049735;28;20084;-57
2022/04/12 03:09:47;;;;;;;11.43;7.18;;;12.00;99.60;;;;;;5049431;28;20526;-58
2022/04/12 03:12:14;;;;;;;14.00;7.28;;;12.10;99.70;;;;;;5049421;28;20500;-58
2022/04/12 03:14:40;;;;;;;13.93;7.75;;;12.10;99.70;;;;;;5049483;28;20079;-58
2022/04/12 03:17:11;;;;;;;12.85;7.90;;;12.10;99.80;;;;;;5049572;28;20081;-57
2022/04/12 03:19:38;;;;;;;16.80;6.80;;;12.10;99.80;;;;;;5049606;28;20045;-57
2022/04/12 03:22:05;;;;;;;11.00;7.43;;;12.10;99.80;;;;;;5049393;28;20084;-59
2022/04/12 03:24:32;;;;;;;13.05;7.28;;;12.10;99.80;;;;;;5049436;28;20053;-58
2022/04/12 03:26:58;;;;;;;14.77;7.78;;;12.10;99.80;;;;;;5049261;28;20119;-58
2022/04/12 03:29:27;;;;;;;11.55;7.82;;;12.10;99.80;;;;;;5049202;28;20049;-57
2022/04/12 03:31:54;;;;;;;12.95;7.03;;;12.10;99.80;;;;;;5049341;28;20049;-58
2022/04/12 03:34:21;;;;;;;15.70;7.60;;;12.10;99.80;;;;;;5048410;28;20251;-58
2022/04/12 03:36:48;;;;;;;15.05;8.07;;;12.10;99.90;;;;;;5048780;28;20076;-58
2022/04/12 03:39:17;;;;;;;11.73;6.85;;;12.10;99.90;;;;;;5049414;28;20088;-57
2022/04/12 03:41:48;;;;;;;15.30;8.68;;;12.10;99.90;;;;;;5047084;28;20500;-59
2022/04/12 03:44:15;;;;;;;13.63;7.07;;;12.00;99.90;;;;;;5050458;28;20053;-57
2022/04/12 03:46:46;;;;;;;19.60;9.63;;;12.00;99.90;;;;;;5051288;28;20052;-58
2022/04/12 03:49:13;;;;;;;14.30;8.10;;;11.90;99.90;;;;;;5053350;28;20044;-59
2022/04/12 03:51:39;;;;;;;19.95;9.30;;;11.80;99.90;;;;;;5052546;28;20045;-57
2022/04/12 03:54:06;;;;;;;18.42;9.88;;;11.80;99.90;;;;;;5051999;28;20496;-57
2022/04/12 03:56:34;;;;;;;23.38;11.38;;;11.70;99.90;;;;;;5051275;28;20076;-58
2022/04/12 03:59:01;;;;;;;16.88;11.60;;;11.60;99.90;;;;;;5052832;28;20518;-58
2022/04/12 04:01:28;;;;;;;25.15;12.23;;;11.60;99.90;;;;;;5049684;28;20495;-56
2022/04/12 04:03:56;;;;;;;29.00;10.68;;;11.50;99.90;;;;;;5036179;28;20115;-57
2022/04/12 04:06:23;;;;;;;20.40;10.98;;;11.40;99.90;;;;;;5048251;28;20111;-57
2022/04/12 04:08:50;;;;;;;19.55;11.65;;;11.30;99.90;;;;;;5051891;28;20108;-58
2022/04/12 04:11:16;;;;;;;21.85;11.35;;;11.20;99.90;;;;;;5052824;28;20045;-57
2022/04/12 04:13:44;;;;;;;20.20;11.35;;;11.20;99.90;;;;;;5052089;28;20439;-58
2022/04/12 04:16:11;;;;;;;19.60;11.02;;;11.20;99.90;;;;;;5052776;28;20095;-59
2022/04/12 04:18:38;;;;;;;24.73;11.38;;;11.10;99.90;;;;;;5052206;28;20516;-59
2022/04/12 04:21:05;;;;;;;25.65;13.45;;;11.10;99.90;;;;;;5052507;28;20471;-59
2022/04/12 04:23:31;;;;;;;28.50;11.95;;;11.10;99.90;;;;;;5051850;28;20045;-59
2022/04/12 04:25:58;;;;;;;17.15;11.30;;;11.00;99.90;;;;;;5051945;28;20053;-60
2022/04/12 04:28:29;;;;;;;24.05;12.88;;;11.00;99.90;;;;;;5051948;28;20490;-57
2022/04/12 04:30:56;;;;;;;29.67;13.95;;;11.00;99.90;;;;;;5035049;28;20102;-58
2022/04/12 04:33:23;;;;;;;18.42;12.15;;;11.00;99.90;;;;;;5050841;28;20087;-59
2022/04/12 04:35:51;;;;;;;24.20;12.40;;;11.00;99.90;;;;;;5051879;28;20075;-59
2022/04/12 04:38:17;;;;;;;22.15;11.60;;;10.90;99.90;;;;;;5050917;28;20044;-59
2022/04/12 04:40:44;;;;;;;26.88;12.27;;;10.90;99.90;;;;;;5050668;28;20516;-59
2022/04/12 04:43:11;;;;;;;26.98;11.52;;;10.90;99.90;;;;;;5052023;28;20480;-57
2022/04/12 04:45:38;;;;;;;20.17;11.30;;;10.90;99.90;;;;;;5051607;28;20049;-59
2022/04/12 04:48:06;;;;;;;28.45;11.00;;;11.00;99.90;;;;;;5050854;28;20045;-56
2022/04/12 04:50:33;;;;;;;20.52;12.15;;;10.90;99.90;;;;;;5051216;28;20037;-58
2022/04/12 04:53:02;;;;;;;22.60;12.95;;;10.90;99.90;;;;;;5051063;28;20052;-59
2022/04/12 04:55:30;;;;;;;24.10;12.38;;;10.90;99.90;;;;;;5050191;28;20068;-57
2022/04/12 04:57:58;;;;;;;26.30;11.60;;;10.90;99.90;;;;;;5051358;28;20136;-59
2022/04/12 05:00:26;;;;;;;27.05;12.23;;;10.90;99.90;;;;;;5051677;28;20057;-60
2022/04/12 05:02:53;;;;;;;24.25;12.13;;;10.90;99.90;;;;;;5052371;28;20057;-59
2022/04/12 05:05:20;;;;;;;29.92;14.70;;;10.90;99.90;;;;;;5050175;28;20088;-59
2022/04/12 05:07:49;;;;;;;21.50;12.25;;;10.80;99.90;;;;;;5034075;28;21383;-59
2022/04/12 05:10:20;;;;;;;26.50;12.02;;;10.90;99.90;;;;;;5051769;28;20169;-59
2022/04/12 05:12:47;;;;;;;24.58;12.30;;;10.80;99.90;;;;;;5049922;28;20139;-59
2022/04/12 05:15:14;;;;;;;21.30;12.23;;;10.90;99.90;;;;;;5051318;28;20060;-59
2022/04/12 05:17:40;;;;;;;24.40;12.93;;;10.90;99.90;;;;;;5049796;28;20049;-61
2022/04/12 05:20:09;;;;;;;23.67;13.23;;;10.90;99.90;;;;;;5051562;28;20454;-59
2022/04/12 05:22:36;;;;;;;21.02;13.15;;;10.90;99.90;;;;;;5051207;28;20080;-60
2022/04/12 05:25:03;;;;;;;26.33;13.82;;;10.80;99.90;;;;;;5051225;28;20076;-58
2022/04/12 05:27:33;;;;;;;22.05;12.52;;;10.90;99.90;;;;;;5050743;28;20131;-59
2022/04/12 05:30:00;;;;;;;31.92;14.07;;;10.90;99.90;;;;;;5051105;28;20049;-59
2022/04/12 05:32:27;;;;;;;26.20;13.35;;;10.90;99.90;;;;;;5049554;28;20508;-60
2022/04/12 05:34:54;;;;;;;31.23;14.35;;;10.90;99.90;;;;;;5050825;28;20509;-59
2022/04/12 05:37:21;;;;;;;23.92;14.27;;;10.90;99.90;;;;;;5051060;28;20095;-59
2022/04/12 05:39:48;;;;;;;34.55;14.07;;;10.90;99.90;;;;;;5050703;28;20049;-59
2022/04/12 05:42:14;;;;;;;23.15;11.90;;;11.00;99.90;;;;;;5050704;28;20710;-59
2022/04/12 05:44:42;;;;;;;26.63;12.05;;;11.00;99.90;;;;;;5050554;28;20048;-59
2022/04/12 05:47:10;;;;;;;22.90;10.75;;;11.00;99.90;;;;;;5049176;28;20500;-59
2022/04/12 05:49:37;;;;;;;19.65;11.07;;;11.10;99.90;;;;;;5050742;28;20424;-59
2022/04/12 05:52:04;;;;;;;21.90;10.23;;;11.20;99.90;;;;;;5050444;28;20080;-59
2022/04/12 05:54:31;;;;;;;18.73;9.90;;;11.20;99.90;;;;;;5050811;28;20185;-58
2022/04/12 05:57:00;;;;;;;15.07;8.85;;;11.30;99.90;;;;;;5050032;28;20128;-57
2022/04/12 05:59:26;;;;;;;23.83;9.50;;;11.40;99.90;;;;;;5050415;28;20049;-58
2022/04/12 06:01:53;;;;;;;24.35;10.32;;;11.40;99.90;;;;;;5049837;28;20085;-58
2022/04/12 06:04:20;;;;;;;20.23;9.57;;;11.50;99.90;;;;;;5050732;28;20510;-58
2022/04/12 06:06:47;;;;;;;16.15;8.75;;;11.60;99.90;;;;;;5049492;28;20080;-57
2022/04/12 06:09:13;;;;;;;16.15;9.18;;;11.60;99.90;;;;;;5048367;28;20094;-58
2022/04/12 06:11:40;;;;;;;19.88;11.55;;;11.70;99.90;;;;;;5049774;28;20365;-54
2022/04/12 06:14:07;;;;;;;17.85;10.25;;;11.70;99.90;;;;;;5049578;28;20057;-58
2022/04/12 06:16:34;;;;;;;24.48;11.00;;;11.60;99.90;;;;;;5050048;28;20037;-57
2022/04/12 06:19:01;;;;;;;32.38;11.90;;;11.50;99.90;;;;;;5032858;28;20114;-59
2022/04/12 06:21:28;;;;;;;17.92;11.13;;;11.60;99.90;;;;;;5049962;28;20124;-58
2022/04/12 06:23:54;;;;;;;23.48;10.63;;;11.60;99.90;;;;;;5049641;28;20488;-59
2022/04/12 06:26:21;;;;;;;23.98;12.02;;;11.60;99.90;;;;;;5048902;28;20069;-59
2022/04/12 06:28:48;;;;;;;32.45;10.95;;;11.60;99.90;;;;;;5048398;28;20168;-57
2022/04/12 06:31:15;;;;;;;21.17;10.48;;;11.60;99.90;;;;;;5049933;28;20057;-59
2022/04/12 06:33:42;;;;;;;18.58;10.23;;;11.60;99.90;;;;;;5047927;28;20484;-59
2022/04/12 06:36:08;;;;;;;17.52;9.55;;;11.70;99.90;;;;;;5049712;28;20083;-59
2022/04/12 06:38:35;;;;;;;17.05;7.32;;;11.80;99.90;;;;;;5049707;28;20144;-60
2022/04/12 06:41:02;;;;;;;8.77;5.30;;;11.90;99.90;;;;;;5049481;28;20053;-59
2022/04/12 06:43:29;;;;;;;12.85;5.25;;;12.10;99.90;;;;;;5049520;28;20073;-58
2022/04/12 06:45:55;;;;;;;12.30;4.28;;;12.20;99.90;;;;;;5031195;28;20049;-57
2022/04/12 06:48:22;;;;;;;9.23;4.30;;;12.30;99.90;;;;;;5049265;28;20045;-59
2022/04/12 06:50:49;;;;;;;11.30;4.38;;;12.50;99.90;;;;;;5048282;28;20478;-59
2022/04/12 06:53:16;;;;;;;14.20;3.95;;;12.60;99.90;;;;;;5048172;28;20076;-58
2022/04/12 06:55:43;;;;;;;8.50;4.10;;;12.70;99.90;;;;;;5048467;28;20131;-57
2022/04/12 06:58:10;;;;;;;13.50;5.13;;;12.80;99.90;;;;;;5049061;28;20056;-54
2022/04/12 07:00:38;;;;;;;10.10;4.57;;;12.80;99.90;;;;;;5048269;28;20102;-58
2022/04/12 07:03:06;;;;;;;5.95;3.50;;;12.90;99.90;;;;;;5049607;28;20045;-57
2022/04/12 07:05:33;;;;;;;11.27;3.72;;;13.00;99.90;;;;;;5049803;28;20053;-54
2022/04/12 07:08:00;;;;;;;12.75;5.15;;;13.10;99.90;;;;;;5049033;28;20171;-57
2022/04/12 07:10:27;;;;;;;13.55;4.43;;;13.20;99.90;;;;;;5048188;28;20049;-57
2022/04/12 07:12:54;;;;;;;10.82;3.53;;;13.20;99.90;;;;;;5025054;28;20425;-60
2022/04/12 07:15:21;;;;;;;12.35;3.85;;;13.30;99.90;;;;;;5048375;28;20045;-59
2022/04/12 07:17:48;;;;;;;12.88;3.78;;;13.30;99.90;;;;;;5049265;28;20076;-57
2022/04/12 07:20:15;;;;;;;9.25;3.70;;;13.40;99.90;;;;;;5051722;28;20076;-60
2022/04/12 07:22:42;;;;;;;7.82;4.15;;;13.50;99.90;;;;;;5035351;28;20053;-58
2022/04/12 07:25:09;;;;;;;12.00;4.18;;;13.50;99.90;;;;;;5052177;28;20091;-58
2022/04/12 07:27:36;;;;;;;5.07;3.05;;;13.60;99.90;;;;;;5052026;28;20088;-58
2022/04/12 07:30:05;;;;;;;7.30;3.88;;;13.60;99.90;;;;;;5052986;28;20100;-59
2022/04/12 07:32:32;;;;;;;8.63;3.08;;;13.70;99.90;;;;;;5053310;28;20471;-58
2022/04/12 07:34:59;;;;;;;9.82;3.38;;;13.90;99.90;;;;;;5053191;28;20045;-57
2022/04/12 07:37:26;;;;;;;10.35;3.92;;;14.00;99.90;;;;;;5052999;28;20107;-59
2022/04/12 07:39:55;;;;;;;7.40;3.53;;;14.00;99.90;;;;;;5053568;28;20541;-58
2022/04/12 07:42:23;;;;;;;6.47;2.80;;;14.20;99.90;;;;;;5052906;28;20057;-59
2022/04/12 07:44:50;;;;;;;8.63;3.78;;;14.30;99.90;;;;;;5052678;28;20045;-58
2022/04/12 07:47:17;;;;;;;10.23;3.40;;;14.40;99.90;;;;;;5052021;28;20094;-58
2022/04/12 07:49:43;;;;;;;10.70;3.65;;;14.50;99.90;;;;;;5051344;28;20048;-59
2022/04/12 07:52:10;;;;;;;13.95;4.28;;;14.50;99.90;;;;;;5052845;28;20095;-59
2022/04/12 07:54:37;;;;;;;9.35;3.47;;;14.70;99.90;;;;;;5052743;28;20496;-58
2022/04/12 07:57:04;;;;;;;7.32;3.83;;;14.60;99.90;;;;;;5050670;28;20077;-59
2022/04/12 07:59:31;;;;;;;9.02;3.22;;;14.70;99.90;;;;;;5026270;28;20056;-57
2022/04/12 08:01:58;;;;;;;8.88;3.50;;;14.70;99.90;;;;;;5050730;28;20159;-58
2022/04/12 08:04:25;;;;;;;13.00;3.72;;;14.70;99.90;;;;;;5047122;28;20128;-59
2022/04/12 08:06:52;;;;;;;12.75;3.13;;;14.80;99.90;;;;;;5031269;28;20107;-59
2022/04/12 08:09:19;;;;;;;8.30;3.22;;;14.90;99.90;;;;;;5032626;28;20056;-58
2022/04/12 08:11:46;;;;;;;6.32;2.75;;;15.00;99.90;;;;;;5032031;28;20136;-59
2022/04/12 08:14:13;;;;;;;3.75;2.88;;;15.00;99.90;;;;;;5032971;28;20041;-59
2022/04/12 08:16:39;;;;;;;5.57;3.10;;;15.10;99.90;;;;;;5032036;28;20088;-58
2022/04/12 08:19:06;;;;;;;10.05;3.17;;;15.20;99.90;;;;;;5031777;28;20560;-60
2022/04/12 08:21:35;;;;;;;12.13;2.95;;;15.10;99.90;;;;;;5030462;28;20532;-59
2022/04/12 08:24:01;;;;;;;8.23;3.15;;;15.20;99.90;;;;;;5032007;28;20042;-59
2022/04/12 08:26:28;;;;;;;16.15;3.03;;;15.20;99.90;;;;;;5031009;28;20300;-58
2022/04/12 08:28:58;;;;;;;9.63;2.95;;;15.20;99.90;;;;;;5032160;28;20084;-59
2022/04/12 08:31:24;;;;;;;9.05;2.83;;;15.30;99.90;;;;;;5030989;28;20104;-59
2022/04/12 08:33:51;;;;;;;11.48;3.60;;;15.30;99.90;;;;;;5013867;28;20173;-59
2022/04/12 08:36:22;;;;;;;15.27;3.72;;;15.40;99.90;;;;;;5031731;28;20072;-58
2022/04/12 08:38:52;;;;;;;6.65;2.55;;;15.40;99.90;;;;;;5031670;28;20063;-58
2022/04/12 08:41:22;;;;;;;6.50;2.63;;;15.60;99.90;;;;;;5031357;28;20157;-59
2022/04/12 08:43:52;;;;;;;10.82;2.53;;;15.70;99.90;;;;;;5031445;28;20515;-60
2022/04/12 08:46:19;;;;;;;9.73;2.95;;;15.70;99.90;;;;;;5030870;28;20049;-59
2022/04/12 08:48:46;;;;;;;9.25;2.83;;;15.70;99.90;;;;;;5032156;28;20467;-60
2022/04/12 08:51:13;;;;;;;6.50;2.50;;;15.80;99.90;;;;;;5030370;28;20540;-60
2022/04/12 08:53:40;;;;;;;12.05;2.97;;;15.90;99.90;;;;;;5030316;28;20497;-60
2022/04/12 08:56:07;;;;;;;7.65;3.60;;;15.90;99.90;;;;;;5029819;28;20377;-59
2022/04/12 08:58:34;;;;;;;6.55;2.67;;;16.00;99.90;;;;;;5030542;28;20089;-59
2022/04/12 09:01:09;;;;;;;8.73;2.45;;;16.10;99.90;;;;;;5032670;28;20454;-59
2022/04/12 09:03:36;;;;;;;9.18;2.50;;;16.20;99.90;;;;;;5014759;28;20322;-56
2022/04/12 09:06:04;;;;;;;6.93;2.30;;;16.20;99.90;;;;;;5032051;28;20152;-60
2022/04/12 09:08:31;;;;;;;8.35;2.90;;;16.20;99.90;;;;;;5031840;28;20048;-60
2022/04/12 09:11:03;;;;;;;9.45;2.70;;;16.30;99.80;;;;;;5030331;28;20053;-59
2022/04/12 09:13:30;;;;;;;6.82;2.50;;;16.30;99.80;;;;;;5028835;28;20096;-59
2022/04/12 09:15:58;;;;;;;5.05;2.08;;;16.30;99.80;;;;;;4681339;28;10000399;-59
2022/04/12 09:18:44;;;;;;;6.72;2.72;;;16.30;99.90;;;;;;5027143;28;20095;-60
2022/04/12 09:21:21;;;;;;;8.77;2.88;;;16.30;99.80;;;;;;5027286;28;20488;-59
2022/04/12 09:23:52;;;;;;;8.07;3.38;;;16.40;99.90;;;;;;5026941;28;20062;-59
2022/04/12 09:26:29;;;;;;;6.00;2.83;;;16.40;99.80;;;;;;5027023;28;20136;-59
2022/04/12 09:28:56;;;;;;;11.98;3.90;;;16.30;99.80;;;;;;5027590;28;20085;-60
2022/04/12 09:31:24;;;;;;;6.32;2.92;;;16.40;99.80;;;;;;5028217;28;20057;-59
2022/04/12 09:33:52;;;;;;;9.30;3.35;;;16.50;99.80;;;;;;5026901;28;20431;-59
2022/04/12 09:36:20;;;;;;;10.18;2.70;;;16.70;99.70;;;;;;5028675;28;20053;-60
2022/04/12 09:38:54;;;;;;;10.15;3.15;;;16.70;99.60;;;;;;5011739;28;20045;-60
2022/04/12 09:41:27;;;;;;;9.38;2.85;;;16.80;99.60;;;;;;5020843;28;20145;-60
2022/04/12 09:44:08;;;;;;;17.23;3.30;;;16.90;99.40;;;;;;5012343;28;20042;-60
2022/04/12 09:46:36;;;;;;;6.55;3.28;;;17.00;99.30;;;;;;5030054;28;20353;-60
2022/04/12 09:49:03;;;;;;;5.03;2.25;;;17.30;99.50;;;;;;5029769;28;20397;-59
2022/04/12 09:51:32;;;;;;;9.13;3.08;;;17.60;99.10;;;;;;5030494;28;20571;-58
2022/04/12 09:53:59;;;;;;;6.72;2.65;;;17.90;98.70;;;;;;5028148;28;20080;-59
2022/04/12 09:56:28;;;;;;;5.30;2.38;;;18.10;98.50;;;;;;5012423;28;20514;-60
2022/04/12 09:59:00;;;;;;;6.80;2.75;;;18.20;98.30;;;;;;5030683;28;20049;-59
2022/04/12 10:01:27;;;;;;;11.02;2.90;;;18.00;97.90;;;;;;5029711;28;20045;-59
2022/04/12 10:03:59;;;;;;;10.85;2.70;;;18.00;98.00;;;;;;5029397;28;20079;-59
2022/04/12 10:06:27;;;;;;;13.05;2.63;;;17.90;97.90;;;;;;5028829;28;20077;-59
2022/04/12 10:08:55;;;;;;;8.13;2.28;;;17.90;98.20;;;;;;5027285;28;20077;-60
2022/04/12 10:11:22;;;;;;;10.18;2.75;;;18.00;98.40;;;;;;5028636;28;20140;-58
2022/04/12 10:13:49;;;;;;;11.30;2.83;;;18.00;98.40;;;;;;5027458;28;20072;-60
2022/04/12 10:16:18;;;;;;;14.73;3.10;;;18.00;98.20;;;;;;5010734;28;20132;-58
2022/04/12 10:18:45;;;;;;;19.60;2.83;;;18.00;98.30;;;;;;5027826;28;20124;-58
2022/04/12 10:21:15;;;;;;;6.18;2.25;;;18.10;98.20;;;;;;5028859;28;20045;-59
2022/04/12 10:23:53;;;;;;;10.55;2.47;;;18.10;98.10;;;;;;5029182;28;20095;-59
2022/04/12 10:26:23;;;;;;;10.88;2.30;;;18.10;98.20;;;;;;5026349;28;20401;-59
2022/04/12 10:28:51;;;;;;;9.77;2.72;;;18.00;97.80;;;;;;5011578;28;20126;-58
2022/04/12 10:31:19;;;;;;;19.83;3.35;;;17.90;97.90;;;;;;5010028;28;20503;-59
2022/04/12 10:34:05;;;;;;;9.45;3.25;;;17.90;98.00;;;;;;5028562;28;20053;-58
2022/04/12 10:36:56;;;;;;;10.00;2.60;;;18.00;98.20;;;;;;5026155;28;20057;-58
2022/04/12 10:40:04;;;;;;;7.03;3.38;;;18.00;97.80;;;;;;5011364;28;20050;-60
2022/04/12 10:42:33;;;;;;;8.38;2.55;;;18.10;98.00;;;;;;5021384;28;20049;-59
2022/04/12 10:45:01;;;;;;;12.52;2.97;;;18.20;98.30;;;;;;5028372;28;20071;-60
2022/04/12 10:47:36;;;;;;;8.27;2.15;;;18.30;98.10;;;;;;5028970;28;20459;-58
2022/04/12 10:50:05;;;;;;;5.55;2.55;;;18.30;98.00;;;;;;5026969;28;20338;-59
2022/04/12 10:52:45;;;;;;;9.88;2.80;;;18.30;98.20;;;;;;5026390;28;20136;-59
2022/04/12 10:55:14;;;;;;;9.13;2.85;;;18.40;98.10;;;;;;5026392;28;20080;-58
2022/04/12 10:57:41;;;;;;;7.95;2.17;;;18.50;98.20;;;;;;5026088;28;20067;-59
2022/04/12 11:00:10;;;;;;;7.65;3.00;;;18.50;97.50;;;;;;5027671;28;20107;-59
2022/04/12 11:02:42;;;;;;;4.93;1.95;;;18.60;97.80;;;;;;5027119;28;20045;-60
2022/04/12 11:05:37;;;;;;;10.55;2.97;;;18.60;97.40;;;;;;5027234;28;20049;-59
2022/04/12 11:08:16;;;;;;;8.18;2.63;;;18.70;97.50;;;;;;5025538;28;20147;-59
2022/04/12 11:11:06;;;;;;;6.53;2.45;;;18.70;97.30;;;;;;5027198;28;20057;-60
2022/04/12 11:13:34;;;;;;;10.00;2.92;;;18.70;97.40;;;;;;5026116;28;20275;-59
2022/04/12 11:16:06;;;;;;;10.30;2.85;;;18.70;97.40;;;;;;5009197;28;20113;-60
2022/04/12 11:18:51;;;;;;;7.78;2.83;;;18.70;97.60;;;;;;5027768;28;20041;-59
2022/04/12 11:21:20;;;;;;;11.95;2.95;;;18.80;97.80;;;;;;5030756;28;20045;-59
2022/04/12 11:23:57;;;;;;;13.95;3.00;;;18.80;97.40;;;;;;5029277;28;20046;-58
2022/04/12 11:26:50;;;;;;;8.75;3.05;;;18.80;97.30;;;;;;5026491;28;20080;-59
2022/04/12 11:29:22;;;;;;;10.27;3.25;;;18.90;97.50;;;;;;5017106;28;20076;-60
2022/04/12 11:31:50;;;;;;;7.63;2.50;;;18.90;97.40;;;;;;5009750;28;20057;-59
2022/04/12 11:34:18;;;;;;;10.35;3.47;;;18.80;97.70;;;;;;5027829;28;20483;-60
2022/04/12 11:36:50;;;;;;;9.15;2.97;;;18.90;96.80;;;;;;5015739;28;20050;-60
2022/04/12 11:39:19;;;;;;;5.55;1.80;;;18.90;97.10;;;;;;5026041;28;20057;-59
2022/04/12 11:41:46;;;;;;;11.88;2.30;;;18.90;97.20;;;;;;5027595;28;20045;-59
2022/04/12 11:44:13;;;;;;;8.90;2.22;;;18.90;97.00;;;;;;5033617;28;20049;-59
2022/04/12 11:46:40;;;;;;;6.97;2.20;;;19.00;97.10;;;;;;5009603;28;20056;-60
2022/04/12 11:49:11;;;;;;;11.85;2.42;;;18.90;96.10;;;;;;5025677;28;20045;-59
2022/04/12 11:51:48;;;;;;;7.75;2.63;;;18.90;96.90;;;;;;5025968;28;20544;-60
2022/04/12 11:54:37;;;;;;;8.88;2.80;;;19.00;96.60;;;;;;5021714;28;20119;-60
2022/04/12 11:57:09;;;;;;;9.55;2.95;;;19.10;96.70;;;;;;5003328;28;20061;-59
2022/04/12 11:59:56;;;;;;;6.55;2.30;;;19.20;97.00;;;;;;5025379;28;20103;-59
2022/04/12 12:02:31;;;;;;;11.35;2.30;;;19.10;96.40;;;;;;5022431;28;20057;-59
2022/04/12 12:05:09;;;;;;;9.45;3.00;;;19.10;96.30;;;;;;5022446;28;20442;-59
2022/04/12 12:07:36;;;;;;;15.40;2.80;;;19.00;96.50;;;;;;5025776;28;20064;-59
2022/04/12 12:10:08;;;;;;;9.27;2.50;;;19.10;96.90;;;;;;5027676;28;20045;-60
2022/04/12 12:12:40;;;;;;;6.38;2.40;;;19.10;96.70;;;;;;5026513;28;20085;-61
2022/04/12 12:15:22;;;;;;;8.27;2.40;;;19.10;96.70;;;;;;5023289;28;20054;-59
2022/04/12 12:17:50;;;;;;;11.77;2.83;;;19.20;96.90;;;;;;5011891;28;20056;-59
2022/04/12 12:20:18;;;;;;;6.95;2.05;;;19.30;97.00;;;;;;5026825;28;20676;-59
2022/04/12 12:22:47;;;;;;;13.43;2.42;;;19.30;96.90;;;;;;5016279;28;20096;-57
2022/04/12 12:25:22;;;;;;;8.65;2.30;;;19.40;96.90;;;;;;5024794;28;20547;-59
2022/04/12 12:27:49;;;;;;;17.65;3.25;;;19.50;96.90;;;;;;5024681;28;20182;-60
2022/04/12 12:30:24;;;;;;;10.80;3.25;;;19.70;96.80;;;;;;5027379;28;20088;-60
2022/04/12 12:32:53;;;;;;;7.07;2.10;;;19.70;96.30;;;;;;5025738;28;20111;-59
2022/04/12 12:35:19;;;;;;;6.32;2.25;;;19.80;96.90;;;;;;5026988;28;20046;-60
2022/04/12 12:37:48;;;;;;;10.43;2.65;;;19.90;96.70;;;;;;5026738;28;20152;-59
2022/04/12 12:40:18;;;;;;;17.92;3.38;;;20.00;96.70;;;;;;5024517;28;20085;-60
2022/04/12 12:42:45;;;;;;;16.27;2.85;;;20.00;96.30;;;;;;5027013;28;20076;-60
2022/04/12 12:45:16;;;;;;;9.60;2.83;;;19.80;96.70;;;;;;5023043;28;20536;-59
2022/04/12 12:47:44;;;;;;;12.07;2.33;;;19.70;96.60;;;;;;5026167;28;20536;-60